Time;durP1;ratioP1;P1;durP2;ratioP2;P2;SDS_P1;SDS_P2;PMS_P1;PMS_P2;Temp;Humidity;BMP_temperature;BMP_pressure;BME280_temperature;BME280_humidity;BME280_pressure;Samples;Min_cycle;Max_cycle;Signal;HPM_P1;HPM_P2
2023/02/06 00:01:34;;;;;;;16.23;8.63;;;38.60;2201.60;;;;;;5073176;28;20021;-76
2023/02/06 00:04:01;;;;;;;17.70;8.77;;;38.60;2201.60;;;;;;5070845;28;20490;-77
2023/02/06 00:06:27;;;;;;;28.58;9.60;;;38.60;2201.60;;;;;;5061873;28;20029;-76
2023/02/06 00:08:52;;;;;;;;;;;38.60;2201.60;;;;;;5063932;28;20028;-76
2023/02/06 00:11:20;;;;;;;15.88;8.02;;;38.50;2201.60;;;;;;5080695;28;19912;-76
2023/02/06 00:13:46;;;;;;;19.60;9.00;;;38.40;2201.60;;;;;;5063860;28;20537;-76
2023/02/06 00:16:22;;;;;;;22.88;8.57;;;38.60;2201.60;;;;;;5061937;28;20020;-75
2023/02/06 00:18:49;;;;;;;20.08;9.82;;;38.60;2201.60;;;;;;5062729;28;20040;-75
2023/02/06 00:21:16;;;;;;;20.25;9.00;;;38.60;2201.60;;;;;;5062460;28;20090;-76
2023/02/06 00:23:42;;;;;;;16.10;7.68;;;38.60;2201.60;;;;;;5063106;28;20036;-75
2023/02/06 00:26:08;;;;;;;;;;;38.50;2201.60;;;;;;5064145;28;20120;-76
2023/02/06 00:28:34;;;;;;;19.73;8.65;;;38.50;2201.60;;;;;;5064444;28;19912;-76
2023/02/06 00:30:59;;;;;;;;;;;38.50;2201.60;;;;;;5061817;28;20068;-76
2023/02/06 00:33:25;;;;;;;19.95;8.18;;;38.60;2201.60;;;;;;5062765;28;19943;-75
2023/02/06 00:35:50;;;;;;;;;;;38.70;2201.60;;;;;;5059732;28;20025;-76
2023/02/06 00:38:16;;;;;;;18.23;8.05;;;38.60;2201.60;;;;;;5064056;28;19904;-76
2023/02/06 00:40:42;;;;;;;;;;;38.60;2201.60;;;;;;5058390;28;20036;-76
2023/02/06 00:43:07;;;;;;;18.08;8.38;;;38.70;2201.60;;;;;;5063350;28;19970;-75
2023/02/06 00:45:33;;;;;;;;;;;38.60;2201.60;;;;;;5061948;28;20021;-76
2023/02/06 00:47:59;;;;;;;14.32;7.30;;;38.40;2201.60;;;;;;5076845;28;20362;-76
2023/02/06 00:50:25;;;;;;;17.30;8.23;;;38.40;2201.60;;;;;;5062222;28;20024;-76
2023/02/06 00:52:51;;;;;;;;;;;38.40;2201.60;;;;;;5062173;28;20187;-76
2023/02/06 00:55:16;;;;;;;16.83;7.20;;;38.40;2201.60;;;;;;5064345;28;19909;-76
2023/02/06 00:57:42;;;;;;;;;;;38.40;2201.60;;;;;;5061104;28;20056;-76
2023/02/06 01:00:08;;;;;;;17.25;7.72;;;38.50;2201.60;;;;;;5062079;28;19905;-76
2023/02/06 01:02:34;;;;;;;14.32;7.68;;;38.70;2201.60;;;;;;5063716;28;20032;-76
2023/02/06 01:05:00;;;;;;;;;;;38.40;2201.60;;;;;;5061229;28;20031;-76
2023/02/06 01:07:26;;;;;;;17.73;8.38;;;38.40;2201.60;;;;;;5064306;28;19904;-76
2023/02/06 01:09:52;;;;;;;;;;;38.40;2201.60;;;;;;5079451;28;20036;-76
2023/02/06 01:12:17;;;;;;;18.98;8.40;;;38.50;2201.60;;;;;;5060625;28;19916;-76
2023/02/06 01:14:43;;;;;;;17.05;8.68;;;38.50;2201.60;;;;;;5064071;28;20021;-76
2023/02/06 01:17:09;;;;;;;;;;;38.50;2201.60;;;;;;5058548;28;20032;-76
2023/02/06 01:19:38;;;;;;;14.15;7.20;;;38.40;2201.60;;;;;;5063437;28;19909;-76
2023/02/06 01:22:05;;;;;;;21.88;8.55;;;38.40;2201.60;;;;;;5060516;28;20021;-76
2023/02/06 01:24:31;;;;;;;16.50;7.72;;;38.50;2201.60;;;;;;5061830;28;20039;-76
2023/02/06 01:26:56;;;;;;;;;;;38.50;2201.60;;;;;;5059677;28;20408;-76
2023/02/06 01:29:22;;;;;;;18.40;7.63;;;38.50;2201.60;;;;;;5063072;28;20285;-76
2023/02/06 01:31:47;;;;;;;;;;;38.60;2201.60;;;;;;5058022;28;20124;-76
2023/02/06 01:34:13;;;;;;;15.15;6.80;;;38.60;2201.60;;;;;;5063513;28;19909;-76
2023/02/06 01:36:38;;;;;;;;;;;38.70;2201.60;;;;;;5061072;28;20032;-76
2023/02/06 01:39:05;;;;;;;17.65;7.60;;;38.70;2201.60;;;;;;5079454;28;19904;-76
2023/02/06 01:41:31;;;;;;;16.25;8.10;;;38.70;2201.60;;;;;;5062451;28;20025;-76
2023/02/06 01:44:09;;;;;;;;;;;38.80;2201.60;;;;;;5061086;28;20565;-76
2023/02/06 01:46:36;;;;;;;16.48;7.43;;;38.70;2201.60;;;;;;5062011;28;19912;-76
2023/02/06 01:49:03;;;;;;;18.27;8.52;;;38.80;2201.60;;;;;;5060472;28;20053;-76
2023/02/06 01:51:30;;;;;;;19.42;8.95;;;38.70;2201.60;;;;;;5059938;28;20033;-76
2023/02/06 01:54:02;;;;;;;19.00;8.93;;;38.50;2201.60;;;;;;5061208;28;20112;-76
2023/02/06 01:56:33;;;;;;;19.10;7.72;;;38.60;2201.60;;;;;;5060725;28;20509;-75
2023/02/06 01:59:01;;;;;;;16.08;8.35;;;38.70;2201.60;;;;;;5060662;28;20048;-76
2023/02/06 02:01:29;;;;;;;20.38;8.95;;;38.70;2201.60;;;;;;5062630;28;20087;-76
2023/02/06 02:04:00;;;;;;;23.05;9.52;;;38.80;2201.60;;;;;;5065475;28;20435;-76
2023/02/06 02:06:27;;;;;;;15.00;7.97;;;38.70;2201.60;;;;;;5063794;28;20025;-76
2023/02/06 02:08:55;;;;;;;18.20;8.10;;;38.80;2201.60;;;;;;5065629;28;20078;-76
2023/02/06 02:11:25;;;;;;;16.75;8.25;;;38.70;2201.60;;;;;;5064195;28;20076;-76
2023/02/06 02:13:53;;;;;;;18.88;8.35;;;38.80;2201.60;;;;;;5064338;28;20048;-76
2023/02/06 02:16:25;;;;;;;17.77;8.60;;;38.70;2201.60;;;;;;5071518;28;20141;-76
2023/02/06 02:19:11;;;;;;;16.63;9.38;;;38.80;2201.60;;;;;;5076145;28;20381;-77
2023/02/06 02:21:48;;;;;;;15.88;7.43;;;38.80;2201.60;;;;;;5070578;28;20028;-76
2023/02/06 02:24:17;;;;;;;22.08;8.85;;;38.80;2201.60;;;;;;5074705;28;20536;-76
2023/02/06 02:26:57;;;;;;;13.98;7.07;;;38.80;2201.60;;;;;;5075944;28;20017;-76
2023/02/06 02:29:53;;;;;;;20.55;7.75;;;38.80;2201.60;;;;;;5074592;28;20040;-77
2023/02/06 02:32:25;;;;;;;18.52;7.88;;;38.80;2201.60;;;;;;5072779;28;20158;-77
2023/02/06 02:35:27;;;;;;;19.83;7.85;;;38.80;2201.60;;;;;;5074287;28;20028;-77
2023/02/06 02:38:17;;;;;;;17.02;7.43;;;38.80;2201.60;;;;;;5074275;28;20021;-76
2023/02/06 02:41:03;;;;;;;17.52;8.10;;;38.80;2201.60;;;;;;5074069;28;20408;-77
2023/02/06 02:43:41;;;;;;;18.05;7.82;;;39.00;2201.60;;;;;;5074378;28;20037;-76
2023/02/06 02:46:19;;;;;;;19.10;8.35;;;39.00;2201.60;;;;;;5075704;28;20485;-77
2023/02/06 02:48:48;;;;;;;19.73;7.88;;;39.00;2201.60;;;;;;5074338;28;20082;-76
2023/02/06 02:51:14;;;;;;;20.58;8.75;;;38.90;2201.60;;;;;;5074220;28;20553;-76
2023/02/06 02:53:39;;;;;;;19.52;7.85;;;39.00;2201.60;;;;;;5073543;28;20432;-76
2023/02/06 02:56:14;;;;;;;;;;;39.10;2201.60;;;;;;5074546;28;20029;-76
2023/02/06 02:58:40;;;;;;;19.35;7.53;;;39.10;2201.60;;;;;;5090877;28;20265;-76
2023/02/06 03:01:12;;;;;;;19.17;8.20;;;39.00;2201.60;;;;;;5073907;28;20038;-76
2023/02/06 03:03:40;;;;;;;15.05;7.22;;;39.10;2201.60;;;;;;5073971;28;20032;-76
2023/02/06 03:06:25;;;;;;;15.10;7.45;;;39.10;2201.60;;;;;;5075051;28;20112;-76
2023/02/06 03:08:56;;;;;;;23.35;9.18;;;39.10;2201.60;;;;;;5074926;28;20486;-76
2023/02/06 03:11:22;;;;;;;15.80;7.55;;;39.20;2201.60;;;;;;5073530;28;20505;-77
2023/02/06 03:13:48;;;;;;;;;;;39.20;2201.60;;;;;;5074412;28;20473;-76
2023/02/06 03:16:19;;;;;;;13.90;5.35;;;39.10;2201.60;;;;;;5090536;28;19905;-77
2023/02/06 03:18:48;;;;;;;17.25;7.40;;;39.00;2201.60;;;;;;5073964;28;20077;-76
2023/02/06 03:21:18;;;;;;;20.60;8.63;;;39.10;2201.60;;;;;;5073720;28;20039;-76
2023/02/06 03:23:46;;;;;;;16.13;7.75;;;39.10;2201.60;;;;;;5073486;28;20063;-77
2023/02/06 03:26:15;;;;;;;19.73;8.30;;;39.00;2201.60;;;;;;5073713;28;20130;-76
2023/02/06 03:28:53;;;;;;;21.88;8.90;;;39.00;2201.60;;;;;;5073462;28;20032;-77
2023/02/06 03:31:37;;;;;;;16.35;7.40;;;39.00;2201.60;;;;;;5073553;28;20115;-77
2023/02/06 03:34:33;;;;;;;15.93;7.32;;;39.10;2201.60;;;;;;5073400;28;20024;-77
2023/02/06 03:37:00;;;;;;;19.48;8.45;;;39.20;2201.60;;;;;;5073020;28;20040;-77
2023/02/06 03:39:26;;;;;;;19.05;9.00;;;39.20;2201.60;;;;;;5073237;28;20036;-77
2023/02/06 03:41:53;;;;;;;;;;;39.20;2201.60;;;;;;5073271;28;20036;-76
2023/02/06 03:44:25;;;;;;;15.02;6.03;;;39.10;2201.60;;;;;;5072298;28;19991;-76
2023/02/06 03:46:53;;;;;;;17.90;8.65;;;39.10;2201.60;;;;;;5074372;28;20062;-77
2023/02/06 03:49:22;;;;;;;17.60;8.45;;;39.10;2201.60;;;;;;5074245;28;20043;-76
2023/02/06 03:52:06;;;;;;;19.35;8.45;;;39.00;2201.60;;;;;;5074237;28;20104;-77
2023/02/06 03:54:35;;;;;;;21.40;8.90;;;39.10;2201.60;;;;;;5072805;28;20067;-76
2023/02/06 03:57:03;;;;;;;22.00;9.43;;;39.20;2201.60;;;;;;5072996;28;20040;-76
2023/02/06 03:59:30;;;;;;;18.83;8.57;;;39.20;2201.60;;;;;;5072812;28;20027;-77
2023/02/06 04:01:58;;;;;;;16.80;8.68;;;39.20;2201.60;;;;;;5072767;28;20028;-76
2023/02/06 04:04:33;;;;;;;20.45;9.70;;;39.20;2201.60;;;;;;5073092;28;20020;-76
2023/02/06 04:07:04;;;;;;;21.13;9.48;;;39.20;2201.60;;;;;;5072781;28;20025;-76
2023/02/06 04:09:30;;;;;;;23.52;10.57;;;39.20;2201.60;;;;;;5072468;28;20099;-76
2023/02/06 04:11:55;;;;;;;;;;;39.30;2201.60;;;;;;5072719;28;20102;-76
2023/02/06 04:14:21;;;;;;;21.83;10.48;;;64.00;2201.60;;;;;;5072464;28;19964;-76
2023/02/06 04:16:47;;;;;;;;;;;64.00;2201.60;;;;;;5072963;28;20025;-77
2023/02/06 04:19:12;;;;;;;21.38;10.82;;;39.30;2201.60;;;;;;5072561;28;19905;-76
2023/02/06 04:21:38;;;;;;;;;;;64.00;2201.60;;;;;;5072771;28;20021;-76
2023/02/06 04:24:04;;;;;;;19.73;8.65;;;64.00;2201.60;;;;;;5071597;28;19916;-76
2023/02/06 04:26:29;;;;;;;;;;;39.30;2201.60;;;;;;5089956;28;20081;-76
2023/02/06 04:28:55;;;;;;;20.10;8.25;;;39.30;2201.60;;;;;;5072397;28;19911;-76
2023/02/06 04:31:20;;;;;;;;;;;64.10;2201.60;;;;;;5072770;28;20024;-76
2023/02/06 04:33:46;;;;;;;17.50;8.52;;;64.10;2201.60;;;;;;5072282;28;20319;-76
2023/02/06 04:36:12;;;;;;;;;;;64.10;2201.60;;;;;;5072799;28;20495;-76
2023/02/06 04:38:37;;;;;;;20.65;8.63;;;64.10;2201.60;;;;;;5072018;28;19905;-76
2023/02/06 04:41:04;;;;;;;;;;;64.10;2201.60;;;;;;5072216;28;20194;-77
2023/02/06 04:43:31;;;;;;;19.33;6.70;;;64.10;2201.60;;;;;;5072438;28;19950;-77
2023/02/06 04:45:57;;;;;;;18.80;9.13;;;64.20;2201.60;;;;;;5072399;28;20554;-76
2023/02/06 04:48:22;;;;;;;;;;;64.10;2201.60;;;;;;5072480;28;20052;-75
2023/02/06 04:50:49;;;;;;;22.30;10.32;;;64.00;2201.60;;;;;;5071916;28;19911;-77
2023/02/06 04:53:15;;;;;;;22.23;9.18;;;39.30;2201.60;;;;;;5072155;28;20381;-75
2023/02/06 04:55:41;;;;;;;17.90;8.27;;;39.20;2201.60;;;;;;5071394;28;20052;-75
2023/02/06 04:58:07;;;;;;;;;;;39.20;2201.60;;;;;;5088864;28;20071;-75
2023/02/06 05:00:33;;;;;;;16.38;8.15;;;39.20;2201.60;;;;;;5071532;28;19904;-75
2023/02/06 05:02:58;;;;;;;;;;;39.20;2201.60;;;;;;5071898;28;20063;-74
2023/02/06 05:05:24;;;;;;;20.73;8.98;;;39.20;2201.60;;;;;;5071425;28;19904;-75
2023/02/06 05:07:49;;;;;;;;;;;39.10;2201.60;;;;;;5071760;28;20027;-74
2023/02/06 05:10:15;;;;;;;19.45;9.57;;;39.10;2201.60;;;;;;5071346;28;19904;-77
2023/02/06 05:12:41;;;;;;;;;;;39.10;2201.60;;;;;;5071446;28;20477;-76
2023/02/06 05:15:08;;;;;;;19.10;8.73;;;39.10;2201.60;;;;;;5071703;28;19912;-76
2023/02/06 05:17:34;;;;;;;22.10;9.07;;;39.20;2201.60;;;;;;5071498;28;20020;-76
2023/02/06 05:20:00;;;;;;;21.27;8.18;;;39.10;2201.60;;;;;;5071604;28;20025;-76
2023/02/06 05:22:26;;;;;;;;;;;39.00;2201.60;;;;;;5071726;28;20481;-75
2023/02/06 05:24:51;;;;;;;29.15;10.80;;;39.00;2201.60;;;;;;5071229;28;19943;-77
2023/02/06 05:27:17;;;;;;;;;;;39.10;2201.60;;;;;;5088659;28;20437;-76
2023/02/06 05:29:43;;;;;;;20.33;9.65;;;39.00;2201.60;;;;;;5071380;28;19990;-76
2023/02/06 05:32:08;;;;;;;;;;;39.20;2201.60;;;;;;5071392;28;20032;-76
2023/02/06 05:34:34;;;;;;;21.55;10.15;;;39.20;2201.60;;;;;;5072355;28;19905;-76
2023/02/06 05:37:00;;;;;;;14.45;7.57;;;39.30;2201.60;;;;;;5076388;28;20028;-77
2023/02/06 05:39:25;;;;;;;;;;;39.20;2201.60;;;;;;5076395;28;20052;-78
2023/02/06 05:41:51;;;;;;;18.00;7.97;;;39.20;2201.60;;;;;;5091902;28;19939;-73
2023/02/06 05:44:17;;;;;;;18.48;8.38;;;39.20;2201.60;;;;;;5096872;28;20062;-73
2023/02/06 05:46:43;;;;;;;;;;;39.20;2201.60;;;;;;5094167;28;20040;-76
2023/02/06 05:49:09;;;;;;;22.75;10.23;;;39.10;2201.60;;;;;;5075777;28;19991;-76
2023/02/06 05:51:34;;;;;;;;;;;39.00;2201.60;;;;;;5089414;28;20103;-76
2023/02/06 05:54:00;;;;;;;19.27;8.40;;;39.10;2201.60;;;;;;5085869;28;20326;-76
2023/02/06 05:56:26;;;;;;;20.45;8.93;;;39.10;2201.60;;;;;;5095555;28;20023;-76
2023/02/06 05:58:51;;;;;;;19.77;8.98;;;39.20;2201.60;;;;;;5095216;28;20508;-78
2023/02/06 06:01:17;;;;;;;22.73;9.48;;;39.20;2201.60;;;;;;5087802;28;20111;-74
2023/02/06 06:03:43;;;;;;;;;;;39.10;2201.60;;;;;;5081247;28;20468;-77
2023/02/06 06:06:08;;;;;;;23.40;8.90;;;39.20;2201.60;;;;;;5088525;28;19912;-76
2023/02/06 06:08:34;;;;;;;18.92;9.38;;;39.10;2201.60;;;;;;5079706;28;20488;-78
2023/02/06 06:11:01;;;;;;;;;;;39.10;2201.60;;;;;;5081719;28;20489;-75
2023/02/06 06:13:27;;;;;;;17.50;7.32;;;39.00;2201.60;;;;;;5076859;28;20460;-75
2023/02/06 06:15:53;;;;;;;;;;;39.00;2201.60;;;;;;5105618;28;20024;-77
2023/02/06 06:18:19;;;;;;;18.30;9.07;;;39.10;2201.60;;;;;;5082257;28;19904;-76
2023/02/06 06:20:46;;;;;;;19.48;9.10;;;39.00;2201.60;;;;;;5076567;28;20043;-76
2023/02/06 06:23:12;;;;;;;20.25;8.63;;;38.50;2201.60;;;;;;5087821;28;20082;-75
2023/02/06 06:25:38;;;;;;;23.00;10.00;;;39.00;2201.60;;;;;;5079771;28;20039;-75
2023/02/06 06:28:03;;;;;;;;;;;38.90;2201.60;;;;;;5095501;28;20114;-76
2023/02/06 06:30:29;;;;;;;25.75;11.13;;;38.80;2201.60;;;;;;5094923;28;19904;-75
2023/02/06 06:32:55;;;;;;;;;;;38.90;2201.60;;;;;;5080741;28;20020;-74
2023/02/06 06:35:21;;;;;;;22.67;7.10;;;38.90;2201.60;;;;;;5081569;28;19912;-75
2023/02/06 06:37:46;;;;;;;;;;;38.90;2201.60;;;;;;5094491;28;20028;-77
2023/02/06 06:40:12;;;;;;;17.92;9.15;;;38.80;2201.60;;;;;;5084666;28;20304;-76
2023/02/06 06:42:38;;;;;;;;;;;38.80;2201.60;;;;;;5080185;28;20127;-74
2023/02/06 06:45:05;;;;;;;26.13;9.82;;;38.80;2201.60;;;;;;5088202;28;19916;-74
2023/02/06 06:47:30;;;;;;;19.08;8.80;;;38.80;2201.60;;;;;;5079058;28;20028;-74
2023/02/06 06:49:56;;;;;;;;;;;38.80;2201.60;;;;;;5110460;28;20095;-76
2023/02/06 06:52:22;;;;;;;33.58;15.98;;;38.90;2201.60;;;;;;5095489;28;19904;-73
2023/02/06 06:54:47;;;;;;;;;;;38.80;2201.60;;;;;;5095871;28;20016;-74
2023/02/06 06:57:13;;;;;;;20.98;9.63;;;38.70;2201.60;;;;;;5090612;28;19908;-76
2023/02/06 06:59:38;;;;;;;;;;;38.70;2201.60;;;;;;5082961;28;20052;-75
2023/02/06 07:02:05;;;;;;;22.08;9.80;;;38.70;2201.60;;;;;;5081300;28;19951;-75
2023/02/06 07:04:31;;;;;;;19.52;9.63;;;38.70;2201.60;;;;;;5078804;28;20115;-75
2023/02/06 07:06:57;;;;;;;;;;;38.60;2201.60;;;;;;5100061;28;20017;-75
2023/02/06 07:09:23;;;;;;;19.60;8.03;;;38.60;2201.60;;;;;;5107787;28;19973;-74
2023/02/06 07:11:48;;;;;;;16.08;8.15;;;38.60;2201.60;;;;;;5088265;28;20485;-78
2023/02/06 07:14:14;;;;;;;;;;;38.70;2201.60;;;;;;5070688;28;20025;-77
2023/02/06 07:16:40;;;;;;;18.70;9.52;;;38.70;2201.60;;;;;;5078974;28;19909;-76
2023/02/06 07:19:07;;;;;;;;;;;38.60;2201.60;;;;;;5061298;28;20060;-76
2023/02/06 07:21:33;;;;;;;13.25;6.45;;;38.50;2201.60;;;;;;5081496;28;19962;-75
2023/02/06 07:24:02;;;;;;;20.60;8.98;;;38.50;2201.60;;;;;;5064998;28;20123;-76
2023/02/06 07:26:28;;;;;;;16.50;8.77;;;38.50;2201.60;;;;;;5064429;28;20021;-76
2023/02/06 07:28:54;;;;;;;17.15;7.72;;;38.40;2201.60;;;;;;5064331;28;20028;-75
2023/02/06 07:31:19;;;;;;;;;;;38.50;2201.60;;;;;;5063038;28;20029;-74
2023/02/06 07:33:45;;;;;;;18.27;8.15;;;38.50;2201.60;;;;;;5079105;28;19916;-76
2023/02/06 07:36:11;;;;;;;;;;;38.50;2201.60;;;;;;5066600;28;20054;-75
2023/02/06 07:38:38;;;;;;;16.23;7.15;;;38.50;2201.60;;;;;;5066392;28;19908;-75
2023/02/06 07:41:03;;;;;;;20.30;8.55;;;38.70;2201.60;;;;;;5066167;28;20115;-76
2023/02/06 07:43:29;;;;;;;;;;;38.40;2201.60;;;;;;5059817;28;20136;-76
2023/02/06 07:45:59;;;;;;;18.23;8.63;;;38.40;2201.60;;;;;;5073509;28;20302;-76
2023/02/06 07:48:25;;;;;;;20.45;9.20;;;13.70;2201.60;;;;;;5061532;28;20029;-76
2023/02/06 07:50:51;;;;;;;;;;;13.70;2201.60;;;;;;5063336;28;20055;-76
2023/02/06 07:53:16;;;;;;;20.80;9.10;;;13.70;2201.60;;;;;;5059778;28;19909;-75
2023/02/06 07:55:42;;;;;;;;;;;13.70;2201.60;;;;;;5056950;28;20029;-79
2023/02/06 07:58:10;;;;;;;20.38;8.75;;;13.60;2201.60;;;;;;5074857;28;19908;-75
2023/02/06 08:00:39;;;;;;;19.67;9.18;;;13.50;2201.60;;;;;;5062248;28;20024;-75
2023/02/06 08:03:05;;;;;;;23.70;9.38;;;13.40;2201.60;;;;;;5068390;28;20040;-75
2023/02/06 08:05:32;;;;;;;23.55;9.57;;;13.40;2201.60;;;;;;5062631;28;20047;-77
2023/02/06 08:07:58;;;;;;;20.35;8.73;;;13.20;2201.60;;;;;;5064599;28;20060;-75
2023/02/06 08:10:24;;;;;;;;;;;13.10;2201.60;;;;;;5067557;28;20052;-76
2023/02/06 08:12:49;;;;;;;20.15;9.50;;;13.20;2201.60;;;;;;5063884;28;19921;-76
2023/02/06 08:15:16;;;;;;;;;;;13.20;2201.60;;;;;;5080084;28;20033;-76
2023/02/06 08:17:42;;;;;;;20.80;9.18;;;13.20;2201.60;;;;;;5064291;28;19912;-75
2023/02/06 08:20:11;;;;;;;21.35;9.45;;;13.20;2201.60;;;;;;5060295;28;20049;-77
2023/02/06 08:22:38;;;;;;;19.27;9.80;;;13.00;2201.60;;;;;;5066447;28;20067;-78
2023/02/06 08:25:05;;;;;;;18.63;9.35;;;13.00;2201.60;;;;;;5060365;28;20037;-76
2023/02/06 08:27:30;;;;;;;17.88;9.38;;;13.00;2201.60;;;;;;5060954;28;20178;-77
2023/02/06 08:29:58;;;;;;;;;;;12.90;2201.60;;;;;;5066589;28;20115;-75
2023/02/06 08:32:24;;;;;;;;;;;12.90;2201.60;;;;;;5062704;28;19995;-77
2023/02/06 08:34:49;;;;;;;16.83;9.68;;;12.90;2201.60;;;;;;5086194;28;19969;-77
2023/02/06 08:37:15;;;;;;;;;;;0.00;2201.60;;;;;;5066491;28;20079;-77
2023/02/06 08:39:41;;;;;;;19.23;8.32;;;0.10;2201.60;;;;;;5076299;28;20413;-74
2023/02/06 08:42:06;;;;;;;;;;;0.20;2201.60;;;;;;5062140;28;20494;-74
2023/02/06 08:44:32;;;;;;;19.70;9.45;;;0.30;2201.60;;;;;;5067770;28;19917;-76
2023/02/06 08:46:57;;;;;;;;;;;0.20;2201.60;;;;;;5060148;28;20107;-76
2023/02/06 08:49:25;;;;;;;18.05;8.45;;;0.20;2201.60;;;;;;5082757;28;19996;-77
2023/02/06 08:51:52;;;;;;;20.48;9.90;;;0.20;2201.60;;;;;;5078802;28;20386;-74
2023/02/06 08:54:20;;;;;;;18.60;8.30;;;0.40;2201.60;;;;;;5061898;28;20017;-74
2023/02/06 08:56:46;;;;;;;21.98;9.13;;;0.30;2201.60;;;;;;5062646;28;20512;-74
2023/02/06 08:59:14;;;;;;;18.27;9.07;;;0.30;2201.60;;;;;;5060419;28;20150;-75
2023/02/06 09:01:41;;;;;;;19.55;8.40;;;0.30;2201.60;;;;;;5068217;28;20025;-75
2023/02/06 09:04:09;;;;;;;18.92;8.32;;;0.60;2201.60;;;;;;5065349;28;20055;-75
2023/02/06 09:06:36;;;;;;;17.25;9.20;;;0.60;2201.60;;;;;;5078548;28;20033;-75
2023/02/06 09:09:03;;;;;;;23.75;7.80;;;0.60;2201.60;;;;;;5064117;28;20033;-75
2023/02/06 09:11:29;;;;;;;25.63;10.57;;;0.60;2201.60;;;;;;5058311;28;20071;-75
2023/02/06 09:13:56;;;;;;;;;;;0.70;2201.60;;;;;;5081149;28;20041;-75
2023/02/06 09:16:22;;;;;;;20.63;9.00;;;0.70;2201.60;;;;;;5063839;28;20015;-73
2023/02/06 09:18:50;;;;;;;16.75;8.43;;;0.80;2201.60;;;;;;5072344;28;20079;-74
2023/02/06 09:21:18;;;;;;;16.85;8.30;;;25.60;2201.60;;;;;;5057621;28;20064;-73
2023/02/06 09:23:46;;;;;;;18.52;8.80;;;25.60;2201.60;;;;;;5064602;28;20029;-75
2023/02/06 09:26:28;;;;;;;14.95;8.23;;;25.70;2201.60;;;;;;5062261;28;20551;-75
2023/02/06 09:28:56;;;;;;;18.45;8.50;;;25.80;2201.60;;;;;;5054664;28;20383;-76
2023/02/06 09:31:23;;;;;;;21.65;8.82;;;25.90;2201.60;;;;;;5061650;28;20513;-75
2023/02/06 09:33:49;;;;;;;18.95;7.97;;;26.00;2201.60;;;;;;5063654;28;20032;-74
2023/02/06 09:36:16;;;;;;;;;;;26.10;2201.60;;;;;;5061584;28;20032;-75
2023/02/06 09:38:44;;;;;;;14.82;7.55;;;26.20;2201.60;;;;;;5072240;28;20377;-75
2023/02/06 09:41:34;;;;;;;20.15;9.02;;;26.40;2201.60;;;;;;5062678;28;20083;-75
2023/02/06 09:44:06;;;;;;;17.50;9.18;;;26.50;2201.60;;;;;;5056192;28;20138;-75
2023/02/06 09:46:34;;;;;;;18.38;8.45;;;51.20;2227.20;;;;;;5064556;28;20028;-75
2023/02/06 09:49:06;;;;;;;17.50;8.55;;;51.50;2227.20;;;;;;5058040;28;20045;-75
2023/02/06 09:51:49;;;;;;;15.77;7.40;;;51.80;2227.20;;;;;;5066058;28;20124;-75
2023/02/06 09:54:49;;;;;;;17.20;8.38;;;51.90;2227.20;;;;;;5061003;28;20035;-74
2023/02/06 09:57:56;;;;;;;19.13;9.32;;;52.10;2227.20;;;;;;5066563;28;20028;-74
2023/02/06 10:00:33;;;;;;;11.50;6.35;;;76.80;2227.20;;;;;;5032780;28;20037;-74
2023/02/06 10:03:35;;;;;;;18.45;9.25;;;77.00;2227.20;;;;;;5049795;28;20055;-75
2023/02/06 10:06:18;;;;;;;18.10;8.75;;;77.20;2227.20;;;;;;5033112;28;20362;-75
2023/02/06 10:08:54;;;;;;;15.02;7.30;;;77.50;2227.20;;;;;;5041560;28;20124;-74
2023/02/06 10:11:27;;;;;;;;;;;77.60;2150.40;;;;;;5035859;28;20060;-75
2023/02/06 10:14:04;;;;;;;16.80;8.30;;;77.70;2150.40;;;;;;5032227;28;19916;-74
2023/02/06 10:16:40;;;;;;;17.17;8.20;;;102.50;2099.20;;;;;;5049617;28;20071;-75
2023/02/06 10:19:36;;;;;;;12.68;6.40;;;102.50;2073.60;;;;;;5039871;28;20057;-75
2023/02/06 10:22:08;;;;;;;18.27;8.90;;;102.50;2048.00;;;;;;5051121;28;20494;-74
2023/02/06 10:25:12;;;;;;;14.82;7.72;;;102.50;2073.60;;;;;;5053294;28;20118;-75
2023/02/06 10:27:42;;;;;;;18.48;9.35;;;102.80;2022.40;;;;;;5041236;28;20047;-75
2023/02/06 10:30:21;;;;;;;22.60;9.43;;;103.00;2022.40;;;;;;5053280;28;20061;-74
2023/02/06 10:33:10;;;;;;;16.42;8.20;;;103.20;1996.80;;;;;;5053390;28;20521;-75
2023/02/06 10:36:05;;;;;;;15.43;7.97;;;128.00;1996.80;;;;;;5084424;28;20029;-75
2023/02/06 10:38:37;;;;;;;14.27;7.70;;;103.30;1945.60;;;;;;5066351;28;20035;-75
2023/02/06 10:41:07;;;;;;;17.30;7.43;;;128.10;1945.60;;;;;;5064450;28;20402;-75
2023/02/06 10:43:50;;;;;;;20.48;7.88;;;128.10;1920.00;;;;;;5065151;28;20119;-74
2023/02/06 10:46:37;;;;;;;19.08;7.35;;;128.40;1894.40;;;;;;5068813;28;20056;-75
2023/02/06 10:49:09;;;;;;;;;;;128.50;1868.80;;;;;;5076291;28;20024;-74
2023/02/06 10:51:41;;;;;;;14.68;7.28;;;128.70;1843.20;;;;;;5073846;28;19984;-75
2023/02/06 10:54:21;;;;;;;13.10;7.05;;;128.90;1843.20;;;;;;5062805;28;20025;-75
2023/02/06 10:56:50;;;;;;;14.25;7.30;;;128.70;1817.60;;;;;;5063468;28;20054;-75
2023/02/06 10:59:33;;;;;;;15.48;8.50;;;153.80;1792.00;;;;;;5058872;28;20128;-75
2023/02/06 11:02:20;;;;;;;12.57;7.32;;;154.00;1792.00;;;;;;5058915;28;20560;-75
2023/02/06 11:05:09;;;;;;;18.65;8.55;;;153.90;1766.40;;;;;;5065383;28;20025;-75
2023/02/06 11:07:42;;;;;;;19.95;7.95;;;154.10;1766.40;;;;;;5050302;28;20029;-75
2023/02/06 11:10:13;;;;;;;14.45;8.48;;;154.30;1766.40;;;;;;5042970;28;20147;-75
2023/02/06 11:12:46;;;;;;;15.50;7.68;;;154.50;1740.80;;;;;;5064317;28;20631;-75
2023/02/06 11:15:31;;;;;;;19.08;8.73;;;154.50;1715.20;;;;;;5063485;28;20119;-75
2023/02/06 11:18:00;;;;;;;14.57;8.15;;;154.50;1715.20;;;;;;5043374;28;20040;-75
2023/02/06 11:20:30;;;;;;;15.82;7.85;;;179.30;1715.20;;;;;;5058383;28;20029;-75
2023/02/06 11:23:20;;;;;;;16.15;8.35;;;179.40;1715.20;;;;;;5057118;28;20598;-75
2023/02/06 11:26:03;;;;;;;14.52;7.25;;;179.50;1689.60;;;;;;5050510;28;20037;-74
2023/02/06 11:28:32;;;;;;;17.55;7.28;;;179.40;1664.00;;;;;;5062763;28;20496;-75
2023/02/06 11:31:04;;;;;;;15.27;8.05;;;179.50;1664.00;;;;;;5045585;28;20040;-75
2023/02/06 11:33:53;;;;;;;16.60;8.23;;;179.40;1638.40;;;;;;5061681;28;20108;-74
2023/02/06 11:36:39;;;;;;;14.65;8.15;;;179.70;1638.40;;;;;;5047757;28;20123;-74
2023/02/06 11:39:24;;;;;;;11.48;6.05;;;179.20;1638.40;;;;;;5050937;28;20605;-75
2023/02/06 11:42:00;;;;;;;11.30;6.10;;;179.60;1638.40;;;;;;5062511;28;20486;-74
2023/02/06 11:44:27;;;;;;;16.45;7.03;;;179.20;1638.40;;;;;;5055939;28;20048;-73
2023/02/06 11:46:53;;;;;;;17.40;7.75;;;179.40;1638.40;;;;;;5068689;28;20029;-74
2023/02/06 11:49:18;;;;;;;;;;;179.50;1612.80;;;;;;5063536;28;20517;-74
2023/02/06 11:51:50;;;;;;;14.40;7.47;;;179.80;1612.80;;;;;;5058680;28;19904;-74
2023/02/06 11:54:27;;;;;;;15.02;8.07;;;179.70;1587.20;;;;;;5067229;28;20358;-74
2023/02/06 11:56:58;;;;;;;13.45;7.25;;;180.00;1587.20;;;;;;5066726;28;20032;-74
2023/02/06 11:59:26;;;;;;;13.50;7.78;;;179.60;1612.80;;;;;;5081199;28;20489;-75
2023/02/06 12:01:52;;;;;;;15.23;7.25;;;179.40;1612.80;;;;;;5060602;28;20037;-74
2023/02/06 12:04:29;;;;;;;17.42;8.25;;;179.30;1638.40;;;;;;5062652;28;20041;-74
2023/02/06 12:07:22;;;;;;;16.08;8.13;;;154.20;1638.40;;;;;;5067901;28;20025;-74
2023/02/06 12:09:47;;;;;;;13.27;7.63;;;154.40;1638.40;;;;;;5064437;28;20028;-75
2023/02/06 12:12:13;;;;;;;;;;;154.50;1638.40;;;;;;5079297;28;20055;-75
2023/02/06 12:14:50;;;;;;;14.00;8.10;;;179.20;1638.40;;;;;;5082970;28;19936;-74
2023/02/06 12:17:39;;;;;;;14.02;6.85;;;154.40;1638.40;;;;;;5076086;28;20059;-74
2023/02/06 12:20:09;;;;;;;17.95;8.85;;;153.90;1689.60;;;;;;5055219;28;20017;-75
2023/02/06 12:22:40;;;;;;;15.10;7.68;;;154.30;1689.60;;;;;;5066527;28;20024;-75
2023/02/06 12:25:21;;;;;;;14.48;8.63;;;154.50;1664.00;;;;;;5065211;28;20040;-75
2023/02/06 12:27:47;;;;;;;14.40;7.05;;;154.30;1664.00;;;;;;5062953;28;20413;-74
2023/02/06 12:30:25;;;;;;;11.60;6.85;;;154.50;1664.00;;;;;;5064981;28;20032;-74
2023/02/06 12:33:03;;;;;;;14.45;8.48;;;154.20;1664.00;;;;;;5072152;28;20057;-73
2023/02/06 12:35:50;;;;;;;15.15;6.72;;;154.30;1664.00;;;;;;5056908;28;20508;-73
2023/02/06 12:38:45;;;;;;;15.38;8.15;;;154.40;1664.00;;;;;;5062981;28;20025;-75
2023/02/06 12:41:50;;;;;;;15.85;7.93;;;154.30;1664.00;;;;;;5050290;28;20044;-74
2023/02/06 12:44:28;;;;;;;17.90;8.10;;;154.50;1689.60;;;;;;5014578;28;20136;-75
2023/02/06 12:47:01;;;;;;;15.23;7.80;;;154.20;1689.60;;;;;;5024094;28;20026;-74
2023/02/06 12:49:56;;;;;;;12.55;6.78;;;154.10;1689.60;;;;;;5019623;28;20049;-75
2023/02/06 12:52:40;;;;;;;14.23;7.55;;;128.90;1715.20;;;;;;5020030;28;20045;-74